createdAt,value
2019-04-07T00:02:05.080Z,4.30
2019-04-07T00:04:35.615Z,4.30
2019-04-07T00:07:06.888Z,4.30
2019-04-07T00:09:37.472Z,4.20
2019-04-07T00:12:08.269Z,4.20
2019-04-07T00:14:39.161Z,4.20
2019-04-07T00:17:12.138Z,4.10
2019-04-07T00:19:42.850Z,4.20
2019-04-07T00:22:13.444Z,4.20
2019-04-07T00:24:44.079Z,4.20
2019-04-07T00:27:16.870Z,4.20
2019-04-07T00:29:50.868Z,4.30
2019-04-07T00:32:22.188Z,4.30
2019-04-07T00:34:53.009Z,4.20
2019-04-07T00:37:23.712Z,4.20
2019-04-07T00:39:56.772Z,4.20
2019-04-07T00:42:27.517Z,4.30
2019-04-07T00:44:59.680Z,4.40
2019-04-07T00:47:30.704Z,4.40
2019-04-07T00:50:03.012Z,4.50
2019-04-07T00:52:33.752Z,4.40
2019-04-07T00:55:05.068Z,4.40
2019-04-07T00:57:35.568Z,4.30
2019-04-07T01:00:08.177Z,4.30
2019-04-07T01:02:38.869Z,4.20
2019-04-07T01:05:09.723Z,4.10
2019-04-07T01:07:40.989Z,4.00
2019-04-07T01:10:12.857Z,3.80
2019-04-07T01:12:43.632Z,3.70
2019-04-07T01:15:15.133Z,3.70
2019-04-07T01:17:45.861Z,3.70
2019-04-07T01:20:16.772Z,3.70
2019-04-07T01:22:47.373Z,3.60
2019-04-07T01:25:18.074Z,3.50
2019-04-07T01:27:49.118Z,3.50
2019-04-07T01:30:20.032Z,3.50
2019-04-07T01:32:51.027Z,3.60
2019-04-07T01:35:22.232Z,3.50
2019-04-07T01:37:52.925Z,3.40
2019-04-07T01:40:23.586Z,3.30
2019-04-07T01:43:13.273Z,3.30
2019-04-07T01:46:03.033Z,3.30
2019-04-07T01:48:53.441Z,3.20
2019-04-07T01:51:33.318Z,3.20
2019-04-07T01:54:17.812Z,3.10
2019-04-07T01:56:55.912Z,3.00
2019-04-07T01:59:35.710Z,3.20
2019-04-07T02:02:13.630Z,3.10
2019-04-07T02:05:03.474Z,3.10
2019-04-07T02:07:53.897Z,2.90
2019-04-07T02:10:40.913Z,2.80
2019-04-07T02:13:30.741Z,2.70
2019-04-07T02:16:20.437Z,2.70
2019-04-07T02:19:06.452Z,2.70
2019-04-07T02:21:46.697Z,2.70
2019-04-07T02:24:23.468Z,2.70
2019-04-07T02:27:13.268Z,2.60
2019-04-07T02:30:03.850Z,2.60
2019-04-07T02:32:54.477Z,2.60
2019-04-07T02:35:35.066Z,2.60
2019-04-07T02:38:17.841Z,2.50
2019-04-07T02:41:09.031Z,2.50
2019-04-07T02:43:47.345Z,2.40
2019-04-07T02:46:37.021Z,2.40
2019-04-07T02:49:22.324Z,2.40
2019-04-07T02:52:00.747Z,2.30
2019-04-07T02:54:40.746Z,2.20
2019-04-07T02:57:30.375Z,2.20
2019-04-07T03:00:20.512Z,2.30
2019-04-07T03:03:06.077Z,2.20
2019-04-07T03:05:56.422Z,2.20
2019-04-07T03:08:47.451Z,2.20
2019-04-07T03:11:37.451Z,2.10
2019-04-07T03:14:14.188Z,2.10
2019-04-07T03:16:59.872Z,2.00
2019-04-07T03:19:35.752Z,1.90
2019-04-07T03:22:15.076Z,1.80
2019-04-07T03:24:55.822Z,1.90
2019-04-07T03:27:34.842Z,1.80
2019-04-07T03:30:27.917Z,1.80
2019-04-07T03:33:21.632Z,1.70
2019-04-07T03:36:11.530Z,1.70
2019-04-07T03:38:59.432Z,1.70
2019-04-07T03:41:45.826Z,1.60
2019-04-07T03:44:32.292Z,1.50
2019-04-07T03:47:16.738Z,1.40
2019-04-07T03:50:07.182Z,1.40
2019-04-07T03:52:52.102Z,1.30
2019-04-07T03:55:42.394Z,1.30
2019-04-07T03:58:32.278Z,1.30
2019-04-07T04:01:20.953Z,1.30
2019-04-07T04:03:59.184Z,1.30
2019-04-07T04:06:49.670Z,1.30
2019-04-07T04:09:26.889Z,1.30
2019-04-07T04:12:03.113Z,1.50
2019-04-07T04:14:52.848Z,1.50
2019-04-07T04:17:25.132Z,1.50
2019-04-07T04:19:55.967Z,1.60
2019-04-07T04:22:26.500Z,1.70
2019-04-07T04:24:58.142Z,1.70
2019-04-07T04:27:28.774Z,1.80
2019-04-07T04:29:59.394Z,1.80
2019-04-07T04:32:30.624Z,2.00
2019-04-07T04:35:03.333Z,1.90
2019-04-07T04:37:41.835Z,1.90
2019-04-07T04:40:07.505Z,2.00
2019-04-07T04:42:38.113Z,2.10
2019-04-07T04:45:09.045Z,2.10
2019-04-07T04:47:40.667Z,2.20
2019-04-07T04:50:12.899Z,2.30
2019-04-07T04:52:43.455Z,2.50
2019-04-07T04:55:14.149Z,2.50
2019-04-07T04:57:45.708Z,2.60
2019-04-07T05:00:18.501Z,2.60
2019-04-07T05:02:50.265Z,2.60
2019-04-07T05:05:21.201Z,2.70
2019-04-07T05:07:59.276Z,2.80
2019-04-07T05:10:25.181Z,2.90
2019-04-07T05:12:57.223Z,3.00
2019-04-07T05:15:28.718Z,3.20
2019-04-07T05:18:02.513Z,3.30
2019-04-07T05:20:33.163Z,3.50
2019-04-07T05:23:04.120Z,3.60
2019-04-07T05:25:36.135Z,3.80
2019-04-07T05:28:06.937Z,3.90
2019-04-07T05:30:37.989Z,4.00
2019-04-07T05:33:09.966Z,3.90
2019-04-07T05:35:40.512Z,4.00
2019-04-07T05:38:11.315Z,4.00
2019-04-07T05:40:42.230Z,4.00
2019-04-07T05:43:12.813Z,4.00
2019-04-07T05:45:44.026Z,4.00
2019-04-07T05:48:17.337Z,4.00
2019-04-07T05:50:47.358Z,4.00
2019-04-07T05:53:18.168Z,4.00
2019-04-07T05:55:49.218Z,4.00
2019-04-07T05:58:20.079Z,4.00
2019-04-07T06:00:50.787Z,4.00
2019-04-07T06:03:22.811Z,4.10
2019-04-07T06:05:53.929Z,4.10
2019-04-07T06:08:30.190Z,4.20
2019-04-07T06:11:00.187Z,4.40
2019-04-07T06:13:29.143Z,4.50
2019-04-07T06:15:59.861Z,4.80
2019-04-07T06:18:34.277Z,5.00
2019-04-07T06:21:06.068Z,5.30
2019-04-07T06:23:37.457Z,5.50
2019-04-07T06:26:11.326Z,5.70
2019-04-07T06:28:40.511Z,5.90
2019-04-07T06:31:11.767Z,6.20
2019-04-07T06:33:42.550Z,6.40
2019-04-07T06:36:13.404Z,6.60
2019-04-07T06:38:50.982Z,6.80
2019-04-07T06:41:18.404Z,7.00
2019-04-07T06:43:49.668Z,7.10
2019-04-07T06:46:40.076Z,7.30
2019-04-07T06:49:17.882Z,7.40
2019-04-07T06:52:05.970Z,7.50
2019-04-07T06:54:41.884Z,7.60
2019-04-07T06:57:35.052Z,7.80
2019-04-07T07:00:24.406Z,7.90
2019-04-07T07:03:12.850Z,8.00
2019-04-07T07:06:02.656Z,8.00
2019-04-07T07:08:45.060Z,7.90
2019-04-07T07:11:29.804Z,8.10
2019-04-07T07:14:14.027Z,8.30
2019-04-07T07:16:58.753Z,8.70
2019-04-07T07:19:42.309Z,9.00
2019-04-07T07:22:16.182Z,9.50
2019-04-07T07:24:47.427Z,9.80
2019-04-07T07:27:18.212Z,10.10
2019-04-07T07:29:51.928Z,10.30
2019-04-07T07:32:21.571Z,10.50
2019-04-07T07:34:52.785Z,10.70
2019-04-07T07:37:25.398Z,10.80
2019-04-07T07:39:56.385Z,10.80
2019-04-07T07:42:27.767Z,11.00
2019-04-07T07:44:58.640Z,11.00
2019-04-07T07:47:31.220Z,11.10
2019-04-07T07:50:04.874Z,11.20
2019-04-07T07:52:34.193Z,11.40
2019-04-07T07:55:05.819Z,11.60
2019-04-07T07:57:37.065Z,11.70
2019-04-07T08:00:08.773Z,11.80
2019-04-07T08:02:40.098Z,11.80
2019-04-07T08:05:11.437Z,11.90
2019-04-07T08:07:46.801Z,12.10
2019-04-07T08:10:16.952Z,12.30
2019-04-07T08:12:49.446Z,12.40
2019-04-07T08:15:23.523Z,12.30
2019-04-07T08:17:53.069Z,12.30
2019-04-07T08:20:24.238Z,12.40
2019-04-07T08:22:54.965Z,12.70
2019-04-07T08:25:25.890Z,13.10
2019-04-07T08:27:58.028Z,13.50
2019-04-07T08:30:28.869Z,13.80
2019-04-07T08:33:01.232Z,13.90
2019-04-07T08:35:36.810Z,14.00
2019-04-07T08:38:05.998Z,14.10
2019-04-07T08:40:38.192Z,14.10
2019-04-07T08:43:08.878Z,14.10
2019-04-07T08:45:39.854Z,13.80
2019-04-07T08:48:10.898Z,13.90
2019-04-07T08:50:42.080Z,13.80
2019-04-07T08:53:14.128Z,13.80
2019-04-07T08:55:48.638Z,13.80
2019-04-07T08:58:36.155Z,13.70
2019-04-07T09:01:03.364Z,13.70
2019-04-07T09:03:34.719Z,13.70
2019-04-07T09:06:06.239Z,14.00
2019-04-07T09:08:38.204Z,14.30
2019-04-07T09:11:13.204Z,14.50
2019-04-07T09:13:50.707Z,14.80
2019-04-07T09:16:31.247Z,15.00
2019-04-07T09:19:21.183Z,15.20
2019-04-07T09:22:11.804Z,15.40
2019-04-07T09:24:56.745Z,15.60
2019-04-07T09:27:35.274Z,15.50
2019-04-07T09:30:20.756Z,15.70
2019-04-07T09:33:06.015Z,15.80
2019-04-07T09:35:47.642Z,16.10
2019-04-07T09:38:35.400Z,16.50
2019-04-07T09:41:27.826Z,16.80
2019-04-07T09:44:14.358Z,17.00
2019-04-07T09:47:04.349Z,16.60
2019-04-07T09:49:48.497Z,16.50
2019-04-07T09:52:27.091Z,16.50
2019-04-07T09:55:09.163Z,16.60
2019-04-07T09:57:50.272Z,16.80
2019-04-07T10:00:39.862Z,16.80
2019-04-07T10:03:19.149Z,16.70
2019-04-07T10:06:10.628Z,16.60
2019-04-07T10:08:55.444Z,16.90
2019-04-07T10:11:47.340Z,17.10
2019-04-07T10:14:37.589Z,17.00
2019-04-07T10:17:27.761Z,16.80
2019-04-07T10:20:18.253Z,16.40
2019-04-07T10:23:01.760Z,16.40
2019-04-07T10:25:42.312Z,16.40
2019-04-07T10:28:18.807Z,16.50
2019-04-07T10:31:06.084Z,17.00
2019-04-07T10:33:56.262Z,17.50
2019-04-07T10:36:40.745Z,17.50
2019-04-07T10:39:17.602Z,17.80
2019-04-07T10:42:07.561Z,17.80
2019-04-07T10:44:45.063Z,18.00
2019-04-07T10:47:21.836Z,18.40
2019-04-07T10:50:05.203Z,18.50
2019-04-07T10:52:51.864Z,18.60
2019-04-07T10:55:38.039Z,18.80
2019-04-07T10:58:31.276Z,18.40
2019-04-07T11:01:14.542Z,18.60
2019-04-07T11:03:54.775Z,18.90
2019-04-07T11:06:45.075Z,19.00
2019-04-07T11:09:28.575Z,18.90
2019-04-07T11:12:18.436Z,18.80
2019-04-07T11:15:05.305Z,19.30
2019-04-07T11:17:51.559Z,19.60
2019-04-07T11:20:37.415Z,19.00
2019-04-07T11:23:18.234Z,18.70
2019-04-07T11:26:08.802Z,18.20
2019-04-07T11:28:48.039Z,18.10
2019-04-07T11:31:27.758Z,17.70
2019-04-07T11:34:12.787Z,17.90
2019-04-07T11:36:54.391Z,17.70
2019-04-07T11:39:32.764Z,17.90
2019-04-07T11:42:23.015Z,18.20
2019-04-07T11:45:07.108Z,18.60
2019-04-07T11:47:57.026Z,19.00
2019-04-07T11:50:47.224Z,19.60
2019-04-07T11:53:23.198Z,19.60
2019-04-07T11:56:13.309Z,19.90
2019-04-07T11:58:51.587Z,20.20
2019-04-07T12:01:43.663Z,20.50
2019-04-07T12:04:31.709Z,20.50
2019-04-07T12:07:12.722Z,20.90
2019-04-07T12:10:03.045Z,20.80
2019-04-07T12:12:48.299Z,20.50
2019-04-07T12:15:30.210Z,21.10
2019-04-07T12:18:14.960Z,21.20
2019-04-07T12:21:00.924Z,21.50
2019-04-07T12:24:00.453Z,21.80
2019-04-07T12:26:50.666Z,22.10
2019-04-07T12:29:36.386Z,21.80
2019-04-07T12:32:15.957Z,21.10
2019-04-07T12:35:06.300Z,20.80
2019-04-07T12:37:49.193Z,20.90
2019-04-07T12:40:39.175Z,21.30
2019-04-07T12:43:17.446Z,21.50
2019-04-07T12:46:02.431Z,21.50
2019-04-07T12:48:46.930Z,21.80
2019-04-07T12:51:52.382Z,22.20
2019-04-07T12:54:27.751Z,21.90
2019-04-07T12:57:09.297Z,21.20
2019-04-07T12:59:59.588Z,21.00
2019-04-07T13:02:53.232Z,20.80
2019-04-07T13:05:36.650Z,20.60
2019-04-07T13:08:27.356Z,20.00
2019-04-07T13:11:08.855Z,20.50
2019-04-07T13:14:01.608Z,21.20
2019-04-07T13:16:49.179Z,21.40
2019-04-07T13:19:41.816Z,21.50
2019-04-07T13:22:18.309Z,21.70
2019-04-07T13:25:00.135Z,21.10
2019-04-07T13:27:50.184Z,21.60
2019-04-07T13:30:27.103Z,21.40
2019-04-07T13:33:14.008Z,21.60
2019-04-07T13:36:00.748Z,21.70
2019-04-07T13:38:38.654Z,21.40
2019-04-07T13:41:23.774Z,21.40
2019-04-07T13:44:07.186Z,21.10
2019-04-07T13:46:53.224Z,20.80
2019-04-07T13:49:43.242Z,20.60
2019-04-07T13:52:23.083Z,20.60
2019-04-07T13:55:07.704Z,20.40
2019-04-07T13:57:59.560Z,20.40
2019-04-07T14:00:50.578Z,20.30
2019-04-07T14:03:40.736Z,20.70
2019-04-07T14:06:22.122Z,20.90
2019-04-07T14:09:02.542Z,20.90
2019-04-07T14:12:04.231Z,20.90
2019-04-07T14:14:35.984Z,20.70
2019-04-07T14:17:29.728Z,20.50
2019-04-07T14:20:20.425Z,20.50
2019-04-07T14:23:13.579Z,20.60
2019-04-07T14:26:00.110Z,20.30
2019-04-07T14:28:41.164Z,20.30
2019-04-07T14:31:29.366Z,20.50
2019-04-07T14:34:19.388Z,20.60
2019-04-07T14:37:03.250Z,20.90
2019-04-07T14:39:46.605Z,21.10
2019-04-07T14:42:31.663Z,21.20
2019-04-07T14:45:13.383Z,20.80
2019-04-07T14:47:54.997Z,20.80
2019-04-07T14:50:44.905Z,20.30
2019-04-07T14:53:22.285Z,19.20
2019-04-07T14:56:12.495Z,18.40
2019-04-07T14:59:03.994Z,17.70
2019-04-07T15:01:44.739Z,17.40
2019-04-07T15:04:15.675Z,17.40
2019-04-07T15:06:49.126Z,17.30
2019-04-07T15:09:25.686Z,17.10
2019-04-07T15:12:21.491Z,17.00
2019-04-07T15:14:49.100Z,17.30
2019-04-07T15:17:20.925Z,17.20
2019-04-07T15:19:52.485Z,17.10
2019-04-07T15:22:28.894Z,17.10
2019-04-07T15:24:57.076Z,16.90
2019-04-07T15:27:28.330Z,17.00
2019-04-07T15:30:00.562Z,17.30
2019-04-07T15:32:31.581Z,17.40
2019-04-07T15:35:03.073Z,17.20
2019-04-07T15:37:34.695Z,17.00
2019-04-07T15:40:08.266Z,16.50
2019-04-07T15:42:44.182Z,16.30
2019-04-07T15:45:13.366Z,16.30
2019-04-07T15:47:44.598Z,16.50
2019-04-07T15:50:15.922Z,17.10
2019-04-07T15:52:47.365Z,17.70
2019-04-07T15:55:18.876Z,18.30
2019-04-07T15:57:53.512Z,18.60
2019-04-07T16:00:22.339Z,19.00
2019-04-07T16:02:53.949Z,19.40
2019-04-07T16:05:26.702Z,19.30
2019-04-07T16:07:57.827Z,19.20
2019-04-07T16:10:29.121Z,19.00
2019-04-07T16:13:01.383Z,18.80
2019-04-07T16:15:32.362Z,18.60
2019-04-07T16:18:06.369Z,18.40
2019-04-07T16:20:39.558Z,18.10
2019-04-07T16:23:08.543Z,17.90
2019-04-07T16:25:41.525Z,17.40
2019-04-07T16:28:14.672Z,17.00
2019-04-07T16:30:47.823Z,16.60
2019-04-07T16:33:17.525Z,16.10
2019-04-07T16:35:53.466Z,15.70
2019-04-07T16:38:21.225Z,15.40
2019-04-07T16:40:52.693Z,15.00
2019-04-07T16:43:24.193Z,14.70
2019-04-07T16:45:56.029Z,14.50
2019-04-07T16:48:29.038Z,14.20
2019-04-07T16:51:02.665Z,13.90
2019-04-07T16:53:36.203Z,13.60
2019-04-07T16:56:05.339Z,13.40
2019-04-07T16:58:38.569Z,13.20
2019-04-07T17:01:10.847Z,12.90
2019-04-07T17:03:41.988Z,12.70
2019-04-07T17:06:14.713Z,12.50
2019-04-07T17:08:46.583Z,12.30
2019-04-07T17:11:18.063Z,12.10
2019-04-07T17:13:49.181Z,11.90
2019-04-07T17:16:22.894Z,11.70
2019-04-07T17:18:56.167Z,11.60
2019-04-07T17:21:27.669Z,11.40
2019-04-07T17:23:59.269Z,11.20
2019-04-07T17:26:30.796Z,11.10
2019-04-07T17:29:04.382Z,11.00
2019-04-07T17:31:35.410Z,10.90
2019-04-07T17:34:09.916Z,10.80
2019-04-07T17:36:40.902Z,10.70
2019-04-07T17:39:36.938Z,10.60
2019-04-07T17:42:12.627Z,10.50
2019-04-07T17:45:03.452Z,10.40
2019-04-07T17:47:55.026Z,10.20
2019-04-07T17:50:45.155Z,10.20
2019-04-07T17:53:36.943Z,10.00
2019-04-07T17:56:29.691Z,9.90
2019-04-07T17:59:09.367Z,9.90
2019-04-07T18:01:56.667Z,9.80
2019-04-07T18:04:36.088Z,9.70
2019-04-07T18:07:22.052Z,9.60
2019-04-07T18:10:11.835Z,9.50
2019-04-07T18:12:55.638Z,9.40
2019-04-07T18:15:45.621Z,9.30
2019-04-07T18:18:36.670Z,9.20
2019-04-07T18:21:28.355Z,9.20
2019-04-07T18:24:20.574Z,9.20
2019-04-07T18:27:01.676Z,9.10
2019-04-07T18:29:50.289Z,9.00
2019-04-07T18:32:35.164Z,9.00
2019-04-07T18:35:29.870Z,8.90
2019-04-07T18:38:11.397Z,8.80
2019-04-07T18:41:09.453Z,8.70
2019-04-07T18:44:02.439Z,8.70
2019-04-07T18:46:50.815Z,8.60
2019-04-07T18:49:32.076Z,8.50
2019-04-07T18:52:23.029Z,8.40
2019-04-07T18:55:14.020Z,8.40
2019-04-07T18:58:00.757Z,8.30
2019-04-07T19:00:52.107Z,8.20
2019-04-07T19:03:38.541Z,8.10
2019-04-07T19:06:29.046Z,8.10
2019-04-07T19:09:11.147Z,8.00
2019-04-07T19:12:02.960Z,7.90
2019-04-07T19:14:48.118Z,8.00
2019-04-07T19:17:36.696Z,7.80
2019-04-07T19:20:27.435Z,7.70
2019-04-07T19:23:05.132Z,7.60
2019-04-07T19:25:55.229Z,7.50
2019-04-07T19:28:38.202Z,7.50
2019-04-07T19:31:26.357Z,7.40
2019-04-07T19:34:17.298Z,7.30
2019-04-07T19:37:08.062Z,7.30
2019-04-07T19:39:57.529Z,7.20
2019-04-07T19:42:39.891Z,7.10
2019-04-07T19:45:24.745Z,7.00
2019-04-07T19:48:07.398Z,6.90
2019-04-07T19:50:50.843Z,6.80
2019-04-07T19:53:32.772Z,6.60
2019-04-07T19:56:23.118Z,6.40
2019-04-07T19:59:10.371Z,6.40
2019-04-07T20:02:02.245Z,6.40
2019-04-07T20:04:53.563Z,6.50
2019-04-07T20:07:33.871Z,6.60
2019-04-07T20:10:19.920Z,6.60
2019-04-07T20:13:07.547Z,6.60
2019-04-07T20:15:47.506Z,6.40
2019-04-07T20:18:37.429Z,6.20
2019-04-07T20:21:35.855Z,6.10
2019-04-07T20:24:10.273Z,6.20
2019-04-07T20:26:59.767Z,6.30
2019-04-07T20:29:50.006Z,6.40
2019-04-07T20:32:33.482Z,6.50
2019-04-07T20:35:23.190Z,6.40
2019-04-07T20:38:06.716Z,6.20
2019-04-07T20:40:56.293Z,5.90
2019-04-07T20:43:46.445Z,5.80
2019-04-07T20:46:36.061Z,5.60
2019-04-07T20:49:26.422Z,5.60
2019-04-07T20:52:08.748Z,5.70
2019-04-07T20:54:48.757Z,5.80
2019-04-07T20:57:39.036Z,5.90
2019-04-07T21:00:30.652Z,5.90
2019-04-07T21:03:24.975Z,6.00
2019-04-07T21:06:02.176Z,6.00
2019-04-07T21:08:41.544Z,6.10
2019-04-07T21:11:31.158Z,6.10
2019-04-07T21:14:20.880Z,5.90
2019-04-07T21:17:02.657Z,5.80
2019-04-07T21:19:52.403Z,5.60
2019-04-07T21:22:33.472Z,5.50
2019-04-07T21:25:25.148Z,5.50
2019-04-07T21:28:06.190Z,5.40
2019-04-07T21:30:43.817Z,5.40
2019-04-07T21:33:23.620Z,5.30
2019-04-07T21:36:06.194Z,5.20
2019-04-07T21:38:55.499Z,5.10
2019-04-07T21:41:46.378Z,5.00
2019-04-07T21:44:36.279Z,5.00
2019-04-07T21:47:27.966Z,5.00
2019-04-07T21:50:19.250Z,4.90
2019-04-07T21:53:00.201Z,4.80
2019-04-07T21:55:45.700Z,4.70
2019-04-07T21:58:25.422Z,5.00
2019-04-07T22:01:05.953Z,4.70
2019-04-07T22:03:48.443Z,4.70
2019-04-07T22:06:37.395Z,4.60
2019-04-07T22:09:17.089Z,4.60
2019-04-07T22:11:48.031Z,4.50
2019-04-07T22:14:18.864Z,4.50
2019-04-07T22:16:49.547Z,4.50
2019-04-07T22:19:20.322Z,4.60
2019-04-07T22:21:55.765Z,4.50
2019-04-07T22:24:23.112Z,4.60
2019-04-07T22:26:53.752Z,4.30
2019-04-07T22:29:24.532Z,4.30
2019-04-07T22:31:57.740Z,4.20
2019-04-07T22:34:31.451Z,4.10
2019-04-07T22:37:00.460Z,4.00
2019-04-07T22:39:32.115Z,3.90
2019-04-07T22:42:04.423Z,3.90
2019-04-07T22:44:35.564Z,3.80
2019-04-07T22:47:07.082Z,3.70
2019-04-07T22:49:37.682Z,3.70
2019-04-07T22:52:08.262Z,3.60
2019-04-07T22:54:38.962Z,3.70
2019-04-07T22:57:13.087Z,3.60
2019-04-07T22:59:41.862Z,3.60
2019-04-07T23:02:12.502Z,3.60
2019-04-07T23:04:43.111Z,3.60
2019-04-07T23:07:14.082Z,3.50
2019-04-07T23:09:45.410Z,3.50
2019-04-07T23:12:16.929Z,3.40
2019-04-07T23:14:47.721Z,3.40
2019-04-07T23:17:18.341Z,3.50
2019-04-07T23:19:48.908Z,3.50
2019-04-07T23:22:20.489Z,3.50
2019-04-07T23:24:51.154Z,3.50
2019-04-07T23:27:24.605Z,3.60
2019-04-07T23:29:55.223Z,3.60
2019-04-07T23:32:25.825Z,3.60
2019-04-07T23:34:57.642Z,3.60
2019-04-07T23:37:28.404Z,3.60
2019-04-07T23:40:00.218Z,3.50
2019-04-07T23:42:30.776Z,3.60
2019-04-07T23:45:04.884Z,3.60
2019-04-07T23:47:35.738Z,3.70
2019-04-07T23:50:07.628Z,3.90
2019-04-07T23:52:41.185Z,3.90
2019-04-07T23:55:12.855Z,3.90
2019-04-07T23:57:44.418Z,3.80
